Juneau, AK

12:55 PM AKDT on October 23, 2014 (GMT -0800)
MISC Lemon Creek (Juneau), AK FAA | Change Station
CLOSE
Current Station
Personal Weather Station
Location: Juneau, AK
Elevation: 16 ft
Nearby Weather Stations

Elev 16 ft 58.36 °N, 134.51 °W | Updated 45 minutes ago

Overcast
Overcast
43 °F
Feels Like 43 °F
N
0
Wind Variable Wind from WSW

Today
High -- | Low -- °F
--% Chance of Precip.
Yesterday
High -- | Low -- °F
Precip. -- in
7:52 AM 5:30 PM
Waning Crescent, 0% visible
Pressure 29.61 in
Visibility 10.0 miles
Clouds Few 900 ft
Mostly Cloudy 7500 ft
Overcast 10000 ft
Windchill 43 °F
Dew Point 43 °F
Humidity 100%
Rainfall -999.00 in
Snow Depth Not available.
UV 0 out of 12
Pollen Not available.
Air Quality Not available.
Flu Activity Sporadic
METAR PAJN 231953Z 00000KT 10SM FEW009 BKN075 OVC100 05/04 A2961 RMK AO2 SLP026 T00500044

More Conditions Fewer Conditions

Pressure 29.61 in
Visibility 10.0 miles
Clouds Few 900 ft
Mostly Cloudy 7500 ft
Overcast 10000 ft
Windchill 43 °F
Dew Point 43 °F
Humidity 100%
Rainfall -999.00 in
Snow Depth Not available.
UV 0 out of 12
Pollen Not available.
Air Quality Not available.
Flu Activity Sporadic
METAR PAJN 231953Z 00000KT 10SM FEW009 BKN075 OVC100 05/04 A2961 RMK AO2 SLP026 T00500044

More Conditions Fewer Conditions

10-Day Weather Forecast

Almanac

Astronomy

Oct. 23, 2014 Rise Set
Actual Time 7:52 AM AKDT 5:30 PM AKDT
Civil Twilight 7:11 AM AKDT 6:12 PM AKDT
Nautical Twilight 6:25 AM AKDT 6:58 PM AKDT
Astronomical Twilight 5:39 AM AKDT 7:43 PM AKDT
Moon 7:37 AM AKDT 5:35 PM AKDT
Length of Visible Light 11h 00m
Length of Day
9h 38m
Tomorrow will be 4m 56s shorter.
Waning Crescent, 0% of the Moon is Illuminated
Today
Waning Crescent
Oct 23
New
Oct 30
First Quarter
Nov 6
Full
Nov 14
Last Quarter

Today's Extremes

State Highs State Lows

Community

WunderPhotos

Upload Photos

1,764,362 photos uploaded!

WunderBlogs® & News

By Dr. Jeff Masters
Director of Meteorology, Weather Underground
By Kari Strenfel
Meteorologist, Weather Underground
By Christopher C. Burt
Weather Historian, Weather Underground
October 23, 2014
October 23, 2014
October 23, 2014

Nearby

Snow Depth

Station Depth Elevation
Long Lake 0 in 820 ft
Upper Tsaina River 10 in 1750 ft
Moraine 0 in 2100 ft
Granite Creek 6 in 1240 ft
Grandview 3 in 1100 ft

Earthquake Activity

City Distance Mag. Time & Date
No recent earthquake activity has been reported nearby.
Minimum magnitude displayed is 2.5.

Coastal Water Temperatures

Place Temperature
No Stations Reporting

Nearby Weather Stations